MGGT/GUA METAR and TAF weather

Enter ICAO airport designator
Station Type Date Time Source
MGGT METAR 2019/04/25 18:00 UTC NOAA

MGGT 251800Z 18012KT 7000 SCT022 24/15 Q1025 A3027 HZ


Station Type Date Time Source
MGGT Decoded METAR 2019/04/25 18:00 UTC NOAA

Guatemala Aeropuertola Aurora , Guatemala (MGGT) 14-35N 090-31W 1489M
Apr 25, 2019 - 02:00 PM EDT / 2019.04.25 1800 UTC
Wind: from the S (180 degrees) at 14 MPH (12 KT):0
Visibility: 4 mile(s):0
Sky conditions: partly cloudy
Temperature: 75 F (24 C)
Dew Point: 59 F (15 C)
Relative Humidity: 57%
Pressure (altimeter): 30.27 in. Hg (1025 hPa)
ob: MGGT 251800Z 18012KT 7000 SCT022 24/15 Q1025 A3027 HZ
cycle: 18

Station Type Date Time Source
MGGT TAF 2019/04/25 12:54 UTC NOAA

TAF TAF MGGT 251100Z 2512/2612 VRB03KT 6000 SCT016 TX28/2520Z TN16/2512Z
TEMPO 2512/2514 3000 BR SCT008
BECMG 2516/2518 18010KT 8000 FEW020
TEMPO 2520/2602 SCT020
BECMG 2602/2604 SCT016
TEMPO 2608/2612 2000 BR FEW008

Example: see airport list